AirNav   Everest Fuels
 
 662 users online  

2OK1 Mercury Ranch Airport
Milburn, Oklahoma, USA

GOING TO MILBURN?


FAA INFORMATION EFFECTIVE 10 SEPTEMBER 2020

Location

FAA Identifier: 2OK1
Lat/Long: 34-11-32.2890N 096-31-07.1688W
34-11.538150N 096-31.119480W
34.1923025,-96.5186580
(estimated)
Elevation: 801 ft. / 244 m (estimated)
From city: 3 miles SE of MILBURN, OK
Time zone: UTC -5 (UTC -6 during Standard Time)
Zip code: 73450

Airport Operations

Airport use: Private use. Permission required prior to landing
Activation date: 03/2011
Control tower: no
ARTCC: FORT WORTH CENTER
FSS: MC ALESTER FLIGHT SERVICE STATION
Attendance: UNATNDD
Segmented circle: no

Airport Communications

WX AWOS-3 at DUA (16 nm S): 124.175 (580-931-3790)

Nearby radio navigation aids

VOR radial/distance  VOR name  Freq  Var
URHr332/16.2TEXOMA VOR/DME114.3005E
ADMr086/32.3ARDMORE VORTAC116.7006E
ADHr162/37.4ADA VOR/DME117.8006E

 
NDB name  Hdg/Dist  Freq  Var  ID
DENISON013/23.234106EDNI -.. -. ..

Airport Services

Runway Information

Runway 18/36

Dimensions: 3830 x 40 ft. / 1167 x 12 m
Surface: turf
RUNWAY 18  RUNWAY 36
Latitude: 34-11.853900N34-11.222400N
Longitude: 096-31.119480W096-31.119480W
Elevation: 796.0 ft.798.0 ft.
Traffic pattern: rightright

Airport Ownership and Management from official FAA records

Ownership: Privately-owned
Owner: MEL LIVELY
13080 OK HWY 78 SOUTH -P.O. BOX 311
MILBURN, OK 73450
Phone (580) 371-8780
STARPLANE@OUTLOOK.COM

Airport Operational Statistics

Aircraft based on the field: 1
Single engine airplanes: 1
    

Additional Remarks

FOR CD CTC FORT WORTH ARTCC AT 817-858-7584.

Instrument Procedures

There are no published instrument procedures at 2OK1.

Some nearby airports with instrument procedures:

1F4 - Madill Municipal Airport (15 nm W)
KDUA - Durant Regional Airport - Eaker Field (16 nm S)
KADM - Ardmore Municipal Airport (26 nm W)
KGYI - North Texas Regional Airport/Perrin Field (30 nm S)
1F0 - Ardmore Downtown Executive Airport (30 nm W)
 
Loc | Ops | Rwys | IFR | FBO | Links
Com | Nav | Svcs | Stats | Notes
Aerial photo
No photo
 
Airport distance calculator
Flying to Mercury Ranch Airport? Find the distance to fly.

From to 2OK1

Sunrise and sunset
Times for 21-Sep-2020
 Local
(UTC-5)
 Zulu
(UTC)
Morning civil twilight06:5011:50
Sunrise07:1512:15
Sunset19:2200:22
Evening civil twilight19:4700:47

Current date and time
Zulu (UTC)  22-Sep-2020 04:40:45
Local (UTC-5)  21-Sep-2020 23:40:45
 
METAR
KDUA 
16nm S 
220415Z AUTO 10007KT 10SM -DZ OVC007 19/17 A3014 RMK AO2
KAQR 
22nm NE 
220415Z AUTO 11004KT BKN006 OVC010 A3015 RMK AO2 PWINO PNO
KADM 
25nm W 
220415Z AUTO 11004KT 7SM -DZ OVC009 19/19 A3013 RMK AO2 T01900189
KGYI 
30nm S 
220415Z AUTO 08008KT 10SM OVC008 19/18 A3012 RMK AO2 T01850176
K1F0 
30nm W 
220410Z AUTO 09007KT 10SM OVC009 19/16 A3013 RMK AO2
TAF
NOTAMs
Click for the latest NOTAMs
NOTAMs are issued by the DoD/FAA and will open in a separate window not controlled by AirNav.

 

 
 

Would you like to see your business listed on this page?

 If your business provides an interesting product or service to pilots, flight crews, aircraft, or users of the Mercury Ranch Airport, you should consider listing it here.  To start the listing process, click on the button below
 
Add a business
 

Other Pages about Mercury Ranch Airport

Update a link
 
Copyright © AirNav, LLC. All rights reserved. Privacy Policy  Contact